Grizzly Air Cargo 5116


PAJN
Juneau International Airport
Juneau, Alaska, US
PAFA
Fairbanks International Airport
Fairbanks, Alaska, US

Activity Log

Date Flight Route Aircraft Duration
12/17/2019 GRZ5116 JNU5 SSR J502 RDFLG HRDNG2 B722 1h 40m
08/16/2019 GRZ506 JNU5 SSR J502 RDFLG HRDNG2 B722 1h 44m
06/25/2019 GRZ506 JNU5 SSR J502 RDFLG HRDNG2 B722 1h 42m
06/24/2019 GRZ506 JNU5 SSR J502 RDFLG HRDNG2 B722 1h 50m
03/21/2019 GRZ506 JNU5 SSR J502 RDFLG HRDNG2 B722 1h 33m

Route Details

Aircraft Information
Primary: Boeing 727-200F
Backup: Boeing 737-800BCF
Route Data
Distance: 574nm
Sched. Duration: 2h 00m
Avg. Duration: 1h 42m (-58m)
Times Flown: 5
Recm'd Route: JNU5 SSR J502 RDFLG HRDNG2
Planned Altitude: 34,000ft
Origin Wx: PAJN 030200Z 08010KT 10SM -RA FEW008 SCT023 OVC050 10/08 A2996 RMK AO2 BINOVC P0001 T01000083
Dest. Wx: PAFA 030153Z 07003KT 10SM SCT070 BKN090 BKN180 18/07 A2958 RMK AO2 SLP019 PRSNT WX VCSH E-SE CB E-SE AND DSNT ALQDS MOV W T01830067
Notes:

Financial History
Total Freight: 191,106lbs
Average Load: 38,221lbs/flt
Fuel Used: 69,827lbs
Avg. Fuel Used: 13,965lbs/flt
Fuel Expense: $74,715
Avg. Fuel Expense: $14,943
Avg. Fuel Cost: $1.07/lbs
Total Gross Income: $421,018
Pilot Pay: $905
Total Expenses: $45,730
Total Revenue: $298,769
Average Revenue: $84,203.54